createdAt,value
2018-02-11T00:00:43.489Z,0.00
2018-02-11T00:01:43.478Z,0.00
2018-02-11T00:02:43.431Z,0.00
2018-02-11T00:03:43.493Z,0.00
2018-02-11T00:04:43.369Z,0.00
2018-02-11T00:05:43.401Z,0.00
2018-02-11T00:06:43.306Z,0.00
2018-02-11T00:07:43.314Z,0.00
2018-02-11T00:08:43.244Z,0.00
2018-02-11T00:09:43.325Z,0.00
2018-02-11T00:10:43.181Z,0.00
2018-02-11T00:11:43.238Z,0.00
2018-02-11T00:12:43.129Z,0.00
2018-02-11T00:13:43.151Z,0.00
2018-02-11T00:14:43.060Z,0.00
2018-02-11T00:15:43.062Z,0.00
2018-02-11T00:16:42.992Z,0.00
2018-02-11T00:17:43.074Z,0.00
2018-02-11T00:18:42.930Z,0.00
2018-02-11T00:19:42.991Z,0.00
2018-02-11T00:20:42.876Z,0.00
2018-02-11T00:21:42.902Z,0.00
2018-02-11T00:22:42.809Z,0.00
2018-02-11T00:23:42.818Z,0.00
2018-02-11T00:24:42.747Z,0.00
2018-02-11T00:25:42.825Z,0.00
2018-02-11T00:26:42.686Z,0.00
2018-02-11T00:27:42.738Z,0.00
2018-02-11T00:28:42.626Z,0.00
2018-02-11T00:29:42.645Z,0.00
2018-02-11T00:30:42.560Z,0.00
2018-02-11T00:31:42.559Z,0.00
2018-02-11T00:32:42.497Z,0.00
2018-02-11T00:33:42.573Z,0.00
2018-02-11T00:34:42.434Z,0.00
2018-02-11T00:35:42.492Z,0.00
2018-02-11T00:36:42.375Z,0.00
2018-02-11T00:37:42.397Z,0.00
2018-02-11T00:38:42.312Z,0.00
2018-02-11T00:39:42.306Z,0.00
2018-02-11T00:40:42.247Z,0.00
2018-02-11T00:41:42.325Z,0.00
2018-02-11T00:42:42.186Z,0.00
2018-02-11T00:43:42.238Z,0.00
2018-02-11T00:44:42.124Z,0.00
2018-02-11T00:45:42.143Z,0.00
2018-02-11T00:46:42.066Z,0.00
2018-02-11T00:47:42.057Z,0.00
2018-02-11T00:48:41.999Z,0.00
2018-02-11T00:49:42.070Z,0.00
2018-02-11T00:50:41.943Z,0.00
2018-02-11T00:51:41.980Z,0.00
2018-02-11T00:52:41.874Z,0.00
2018-02-11T00:53:41.894Z,0.00
2018-02-11T00:54:41.849Z,0.00
2018-02-11T00:55:41.803Z,0.00
2018-02-11T00:56:41.750Z,0.00
2018-02-11T00:57:41.817Z,0.00
2018-02-11T00:58:41.689Z,0.00
2018-02-11T00:59:41.730Z,0.00
2018-02-11T01:00:41.629Z,0.00
2018-02-11T01:01:41.645Z,0.00
2018-02-11T01:02:41.574Z,0.00
2018-02-11T01:03:41.552Z,0.00
2018-02-11T01:04:41.498Z,0.00
2018-02-11T01:05:41.567Z,0.00
2018-02-11T01:06:41.439Z,0.00
2018-02-11T01:07:41.479Z,0.00
2018-02-11T01:08:41.377Z,0.00
2018-02-11T01:09:41.390Z,0.00
2018-02-11T01:10:41.317Z,0.00
2018-02-11T01:11:41.305Z,0.00
2018-02-11T01:12:41.255Z,0.00
2018-02-11T01:13:41.314Z,0.00
2018-02-11T01:14:41.192Z,0.00
2018-02-11T01:15:41.227Z,0.00
2018-02-11T01:16:41.130Z,0.00
2018-02-11T01:17:41.141Z,0.00
2018-02-11T01:18:41.065Z,0.00
2018-02-11T01:19:41.155Z,0.00
2018-02-11T01:20:41.007Z,0.00
2018-02-11T01:21:41.066Z,0.00
2018-02-11T01:22:40.948Z,0.00
2018-02-11T01:23:40.976Z,0.00
2018-02-11T01:24:40.892Z,0.00
2018-02-11T01:25:40.887Z,0.00
2018-02-11T01:26:40.821Z,0.00
2018-02-11T01:27:40.900Z,0.00
2018-02-11T01:28:40.759Z,0.00
2018-02-11T01:29:40.812Z,0.00
2018-02-11T01:30:40.696Z,0.00
2018-02-11T01:31:40.723Z,0.00
2018-02-11T01:32:40.634Z,0.00
2018-02-11T01:33:40.634Z,0.00
2018-02-11T01:34:40.568Z,0.00
2018-02-11T01:35:40.646Z,0.00
2018-02-11T01:36:40.512Z,0.00
2018-02-11T01:37:40.559Z,0.00
2018-02-11T01:38:40.449Z,0.00
2018-02-11T01:39:40.472Z,0.00
2018-02-11T01:40:40.385Z,0.00
2018-02-11T01:41:40.391Z,0.00
2018-02-11T01:42:40.325Z,0.00
2018-02-11T01:43:40.397Z,0.00
2018-02-11T01:44:40.261Z,0.00
2018-02-11T01:45:40.309Z,0.00
2018-02-11T01:46:40.206Z,0.00
2018-02-11T01:47:40.218Z,0.00
2018-02-11T01:48:40.137Z,0.00
2018-02-11T01:49:40.130Z,0.00
2018-02-11T01:50:40.074Z,0.00
2018-02-11T01:51:40.144Z,0.00
2018-02-11T01:52:40.015Z,0.00
2018-02-11T01:53:40.057Z,0.00
2018-02-11T01:54:39.954Z,0.00
2018-02-11T01:55:39.971Z,0.00
2018-02-11T01:56:39.890Z,0.00
2018-02-11T01:57:39.884Z,0.00
2018-02-11T01:58:39.831Z,0.00
2018-02-11T01:59:39.891Z,0.00
2018-02-11T02:00:39.765Z,0.00
2018-02-11T02:01:39.800Z,0.00
2018-02-11T02:02:39.703Z,0.00
2018-02-11T02:03:39.715Z,0.00
2018-02-11T02:04:39.639Z,0.00
2018-02-11T02:05:39.631Z,0.00
2018-02-11T02:06:39.603Z,0.00
2018-02-11T02:07:39.642Z,0.00
2018-02-11T02:08:39.509Z,0.00
2018-02-11T02:09:39.562Z,0.00
2018-02-11T02:10:39.459Z,0.00
2018-02-11T02:11:39.465Z,0.00
2018-02-11T02:12:39.394Z,0.00
2018-02-11T02:13:39.478Z,0.00
2018-02-11T02:14:39.336Z,0.00
2018-02-11T02:15:39.392Z,0.00
2018-02-11T02:16:39.271Z,0.00
2018-02-11T02:17:39.302Z,0.00
2018-02-11T02:18:39.210Z,0.00
2018-02-11T02:19:39.213Z,0.00
2018-02-11T02:20:39.146Z,0.00
2018-02-11T02:21:39.227Z,0.00
2018-02-11T02:22:39.088Z,0.00
2018-02-11T02:23:39.147Z,0.00
2018-02-11T02:24:39.024Z,0.00
2018-02-11T02:25:39.052Z,0.00
2018-02-11T02:26:38.962Z,0.00
2018-02-11T02:27:38.961Z,0.00
2018-02-11T02:28:38.903Z,0.00
2018-02-11T02:29:38.979Z,0.00
2018-02-11T02:30:38.843Z,0.00
2018-02-11T02:31:38.889Z,0.00
2018-02-11T02:32:38.777Z,0.00
2018-02-11T02:33:38.801Z,0.00
2018-02-11T02:34:38.717Z,0.00
2018-02-11T02:35:38.716Z,0.00
2018-02-11T02:36:38.654Z,0.00
2018-02-11T02:37:38.725Z,0.00
2018-02-11T02:38:38.591Z,0.00
2018-02-11T02:39:38.633Z,0.00
2018-02-11T02:40:38.525Z,0.00
2018-02-11T02:41:38.550Z,0.00
2018-02-11T02:42:38.470Z,0.00
2018-02-11T02:43:38.453Z,0.00
2018-02-11T02:44:38.407Z,0.00
2018-02-11T02:45:38.473Z,0.00
2018-02-11T02:46:38.346Z,0.00
2018-02-11T02:47:38.382Z,0.00
2018-02-11T02:48:38.283Z,0.00
2018-02-11T02:49:38.296Z,0.00
2018-02-11T02:50:38.220Z,0.00
2018-02-11T02:51:38.206Z,0.00
2018-02-11T02:52:38.165Z,0.00
2018-02-11T02:53:38.219Z,0.00
2018-02-11T02:54:38.106Z,0.00
2018-02-11T02:55:38.131Z,0.00
2018-02-11T02:56:38.039Z,0.00
2018-02-11T02:57:38.043Z,0.00
2018-02-11T02:58:37.977Z,0.00
2018-02-11T02:59:38.057Z,0.00
2018-02-11T03:00:37.916Z,0.00
2018-02-11T03:01:37.967Z,0.00
2018-02-11T03:02:37.856Z,0.00
2018-02-11T03:03:37.884Z,0.00
2018-02-11T03:04:37.797Z,0.00
2018-02-11T03:05:37.792Z,0.00
2018-02-11T03:06:37.730Z,0.00
2018-02-11T03:07:37.805Z,0.00
2018-02-11T03:08:37.668Z,0.00
2018-02-11T03:09:37.715Z,0.00
2018-02-11T03:10:37.601Z,0.00
2018-02-11T03:11:37.633Z,0.00
2018-02-11T03:12:37.547Z,0.00
2018-02-11T03:13:37.537Z,0.00
2018-02-11T03:14:37.489Z,0.00
2018-02-11T03:15:37.554Z,0.00
2018-02-11T03:16:37.424Z,0.00
2018-02-11T03:17:37.465Z,0.00
2018-02-11T03:18:37.369Z,0.00
2018-02-11T03:19:37.377Z,0.00
2018-02-11T03:20:37.303Z,0.00
2018-02-11T03:21:37.286Z,0.00
2018-02-11T03:22:37.240Z,0.00
2018-02-11T03:23:37.304Z,0.00
2018-02-11T03:24:37.178Z,0.00
2018-02-11T03:25:37.213Z,0.00
2018-02-11T03:26:37.118Z,0.00
2018-02-11T03:27:37.129Z,0.00
2018-02-11T03:28:37.056Z,0.00
2018-02-11T03:29:37.141Z,0.00
2018-02-11T03:30:36.994Z,0.00
2018-02-11T03:31:37.051Z,0.00
2018-02-11T03:32:36.934Z,0.00
2018-02-11T03:33:36.961Z,0.00
2018-02-11T03:34:36.874Z,0.00
2018-02-11T03:35:36.873Z,0.00
2018-02-11T03:36:36.812Z,0.00
2018-02-11T03:37:36.886Z,0.00
2018-02-11T03:38:36.750Z,0.00
2018-02-11T03:39:36.801Z,0.00
2018-02-11T03:40:36.694Z,0.00
2018-02-11T03:41:36.712Z,0.00
2018-02-11T03:42:36.631Z,0.00
2018-02-11T03:43:36.622Z,0.00
2018-02-11T03:44:36.567Z,0.00
2018-02-11T03:45:36.636Z,0.00
2018-02-11T03:46:36.510Z,0.00
2018-02-11T03:47:36.549Z,0.00
2018-02-11T03:48:36.447Z,0.00
2018-02-11T03:49:36.458Z,0.00
2018-02-11T03:50:36.385Z,0.00
2018-02-11T03:51:36.370Z,0.00
2018-02-11T03:52:36.327Z,0.00
2018-02-11T03:53:36.383Z,0.00
2018-02-11T03:54:36.264Z,0.00
2018-02-11T03:55:36.296Z,0.00
2018-02-11T03:56:36.200Z,0.00
2018-02-11T03:57:36.199Z,0.00
2018-02-11T03:58:36.146Z,0.00
2018-02-11T03:59:36.218Z,0.00
2018-02-11T04:00:36.084Z,0.00
2018-02-11T04:01:36.133Z,0.00
2018-02-11T04:02:36.019Z,0.00
2018-02-11T04:03:36.044Z,0.00
2018-02-11T04:04:35.961Z,0.00
2018-02-11T04:05:35.956Z,0.00
2018-02-11T04:06:35.901Z,0.00
2018-02-11T04:07:35.968Z,0.00
2018-02-11T04:08:35.837Z,0.00
2018-02-11T04:09:35.885Z,0.00
2018-02-11T04:10:35.780Z,0.00
2018-02-11T04:11:35.792Z,0.00
2018-02-11T04:12:35.717Z,0.00
2018-02-11T04:13:35.705Z,0.00
2018-02-11T04:14:35.656Z,0.00
2018-02-11T04:15:35.718Z,0.00
2018-02-11T04:16:35.595Z,0.00
2018-02-11T04:17:35.629Z,0.00
2018-02-11T04:18:35.534Z,0.00
2018-02-11T04:19:35.541Z,0.00
2018-02-11T04:20:35.474Z,0.00
2018-02-11T04:21:35.554Z,0.00
2018-02-11T04:22:35.415Z,0.00
2018-02-11T04:23:35.465Z,0.00
2018-02-11T04:24:35.352Z,0.00
2018-02-11T04:25:35.377Z,0.00
2018-02-11T04:26:35.290Z,0.00
2018-02-11T04:27:35.289Z,0.00
2018-02-11T04:28:35.231Z,0.00
2018-02-11T04:29:35.301Z,0.00
2018-02-11T04:30:35.170Z,0.00
2018-02-11T04:31:35.219Z,0.00
2018-02-11T04:32:35.114Z,0.00
2018-02-11T04:33:35.128Z,0.00
2018-02-11T04:34:35.059Z,0.00
2018-02-11T04:35:35.041Z,0.00
2018-02-11T04:36:34.988Z,0.00
2018-02-11T04:37:35.052Z,0.00
2018-02-11T04:38:34.932Z,0.00
2018-02-11T04:39:34.970Z,0.00
2018-02-11T04:40:34.865Z,0.00
2018-02-11T04:41:34.884Z,0.00
2018-02-11T04:42:34.805Z,0.00
2018-02-11T04:43:34.899Z,0.00
2018-02-11T04:44:34.742Z,0.00
2018-02-11T04:45:34.805Z,0.00
2018-02-11T04:46:34.683Z,0.00
2018-02-11T04:47:34.716Z,0.00
2018-02-11T04:48:34.620Z,0.00
2018-02-11T04:49:34.628Z,0.00
2018-02-11T04:50:34.614Z,0.00
2018-02-11T04:51:34.640Z,0.00
2018-02-11T04:52:34.500Z,0.00
2018-02-11T04:53:34.553Z,0.00
2018-02-11T04:54:34.441Z,0.00
2018-02-11T04:55:34.461Z,0.00
2018-02-11T04:56:34.381Z,0.00
2018-02-11T04:57:34.372Z,0.00
2018-02-11T04:58:34.324Z,0.00
2018-02-11T04:59:34.387Z,0.00
2018-02-11T05:00:34.257Z,0.00
2018-02-11T05:01:34.300Z,0.00
2018-02-11T05:02:34.200Z,0.00
2018-02-11T05:03:34.212Z,0.00
2018-02-11T05:04:34.137Z,0.00
2018-02-11T05:05:34.120Z,0.00
2018-02-11T05:06:34.074Z,0.00
2018-02-11T05:07:34.136Z,0.00
2018-02-11T05:08:34.016Z,0.00
2018-02-11T05:09:34.049Z,0.00
2018-02-11T05:10:33.954Z,0.00
2018-02-11T05:11:33.958Z,0.00
2018-02-11T05:12:33.894Z,0.00
2018-02-11T05:13:33.972Z,0.00
2018-02-11T05:14:33.834Z,0.00
2018-02-11T05:15:33.885Z,0.00
2018-02-11T05:16:33.771Z,0.00
2018-02-11T05:17:33.855Z,0.00
2018-02-11T05:18:33.714Z,0.00
2018-02-11T05:19:33.706Z,0.00
2018-02-11T05:20:33.659Z,0.00
2018-02-11T05:21:33.720Z,0.00
2018-02-11T05:22:33.590Z,0.00
2018-02-11T05:23:33.634Z,0.00
2018-02-11T05:24:33.532Z,0.00
2018-02-11T05:25:33.544Z,0.00
2018-02-11T05:26:33.476Z,0.00
2018-02-11T05:27:33.455Z,0.00
2018-02-11T05:28:33.408Z,0.00
2018-02-11T05:29:33.468Z,0.00
2018-02-11T05:30:33.351Z,0.00
2018-02-11T05:31:33.382Z,0.00
2018-02-11T05:32:33.292Z,0.00
2018-02-11T05:33:33.287Z,0.00
2018-02-11T05:34:33.232Z,0.00
2018-02-11T05:35:33.307Z,0.00
2018-02-11T05:36:33.169Z,0.00
2018-02-11T05:37:33.218Z,0.00
2018-02-11T05:38:33.108Z,0.00
2018-02-11T05:39:33.130Z,0.00
2018-02-11T05:40:33.049Z,0.00
2018-02-11T05:41:33.041Z,0.00
2018-02-11T05:42:32.999Z,0.00
2018-02-11T05:43:33.057Z,0.00
2018-02-11T05:44:32.927Z,0.00
2018-02-11T05:45:32.967Z,0.00
2018-02-11T05:46:32.870Z,0.00
2018-02-11T05:47:32.874Z,0.00
2018-02-11T05:48:32.803Z,0.00
2018-02-11T05:49:32.788Z,0.00
2018-02-11T05:50:32.743Z,0.00
2018-02-11T05:51:32.801Z,0.00
2018-02-11T05:52:32.685Z,0.00
2018-02-11T05:53:32.712Z,0.00
2018-02-11T05:54:32.625Z,0.00
2018-02-11T05:55:32.624Z,0.00
2018-02-11T05:56:32.565Z,0.00
2018-02-11T05:57:32.637Z,0.00
2018-02-11T05:58:32.504Z,0.00
2018-02-11T05:59:32.549Z,0.00
2018-02-11T06:00:32.446Z,0.00
2018-02-11T06:01:32.462Z,0.00
2018-02-11T06:02:32.382Z,0.00
2018-02-11T06:03:32.373Z,0.00
2018-02-11T06:04:32.325Z,0.00
2018-02-11T06:05:32.386Z,0.00
2018-02-11T06:06:32.263Z,0.00
2018-02-11T06:07:32.300Z,0.00
2018-02-11T06:08:32.195Z,0.00
2018-02-11T06:09:32.211Z,0.00
2018-02-11T06:10:32.149Z,0.00
2018-02-11T06:11:32.224Z,0.00
2018-02-11T06:12:32.083Z,0.00
2018-02-11T06:13:32.136Z,0.00
2018-02-11T06:14:32.026Z,0.00
2018-02-11T06:15:32.046Z,0.00
2018-02-11T06:16:31.962Z,0.00
2018-02-11T06:17:31.959Z,0.00
2018-02-11T06:18:31.902Z,0.00
2018-02-11T06:19:31.973Z,0.00
2018-02-11T06:20:31.857Z,0.00
2018-02-11T06:21:31.884Z,0.00
2018-02-11T06:22:31.784Z,0.00
2018-02-11T06:23:31.798Z,0.00
2018-02-11T06:24:31.722Z,0.00
2018-02-11T06:25:31.709Z,0.00
2018-02-11T06:26:31.657Z,0.00
2018-02-11T06:27:31.718Z,0.00
2018-02-11T06:28:31.603Z,0.00
2018-02-11T06:29:31.633Z,0.00
2018-02-11T06:30:31.542Z,0.00
2018-02-11T06:31:31.545Z,0.00
2018-02-11T06:32:31.481Z,0.00
2018-02-11T06:33:31.560Z,0.00
2018-02-11T06:34:31.423Z,0.00
2018-02-11T06:35:31.471Z,0.00
2018-02-11T06:36:31.359Z,0.00
2018-02-11T06:37:31.383Z,0.00
2018-02-11T06:38:31.305Z,0.00
2018-02-11T06:39:31.293Z,0.00
2018-02-11T06:40:31.240Z,0.00
2018-02-11T06:41:31.308Z,0.00
2018-02-11T06:42:31.184Z,4.00
2018-02-11T06:43:31.217Z,0.00
2018-02-11T06:44:31.121Z,0.00
2018-02-11T06:45:31.132Z,0.00
2018-02-11T06:46:31.059Z,4.00
2018-02-11T06:47:31.142Z,4.00
2018-02-11T06:48:31.002Z,4.00
2018-02-11T06:49:31.053Z,4.00
2018-02-11T06:50:30.941Z,8.00
2018-02-11T06:51:30.967Z,4.00
2018-02-11T06:52:30.882Z,8.00
2018-02-11T06:53:30.878Z,12.00
2018-02-11T06:54:30.823Z,12.00
2018-02-11T06:55:30.889Z,12.00
2018-02-11T06:56:30.763Z,8.00
2018-02-11T06:57:30.802Z,8.00
2018-02-11T06:58:30.703Z,8.00
2018-02-11T06:59:30.714Z,12.00
2018-02-11T07:00:30.661Z,8.00
2018-02-11T07:01:30.626Z,12.00
2018-02-11T07:02:30.583Z,8.00
2018-02-11T07:03:30.680Z,8.00
2018-02-11T07:04:30.525Z,12.00
2018-02-11T07:05:30.551Z,16.00
2018-02-11T07:06:30.463Z,12.00
2018-02-11T07:07:30.460Z,16.00
2018-02-11T07:08:30.403Z,16.00
2018-02-11T07:09:30.483Z,16.00
2018-02-11T07:10:30.342Z,12.00
2018-02-11T07:11:30.394Z,16.00
2018-02-11T07:12:30.286Z,16.00
2018-02-11T07:13:30.300Z,20.00
2018-02-11T07:14:30.226Z,20.00
2018-02-11T07:15:30.216Z,20.00
2018-02-11T07:16:30.165Z,20.00
2018-02-11T07:17:30.226Z,24.00
2018-02-11T07:18:30.111Z,24.00
2018-02-11T07:19:30.139Z,24.00
2018-02-11T07:20:30.047Z,24.00
2018-02-11T07:21:30.052Z,24.00
2018-02-11T07:22:29.987Z,20.00
2018-02-11T07:23:30.069Z,20.00
2018-02-11T07:24:29.926Z,20.00
2018-02-11T07:25:29.975Z,24.00
2018-02-11T07:26:29.868Z,32.00
2018-02-11T07:27:29.891Z,40.00
2018-02-11T07:28:29.810Z,48.00
2018-02-11T07:29:29.798Z,48.00
2018-02-11T07:30:29.749Z,52.00
2018-02-11T07:31:29.805Z,48.00
2018-02-11T07:32:29.696Z,48.00
2018-02-11T07:33:29.727Z,44.00
2018-02-11T07:34:29.686Z,44.00
2018-02-11T07:35:29.633Z,48.00
2018-02-11T07:36:29.577Z,44.00
2018-02-11T07:37:29.657Z,52.00
2018-02-11T07:38:29.512Z,52.00
2018-02-11T07:39:29.560Z,52.00
2018-02-11T07:40:29.453Z,48.00
2018-02-11T07:41:29.473Z,40.00
2018-02-11T07:42:29.397Z,40.00
2018-02-11T07:43:29.381Z,48.00
2018-02-11T07:44:29.339Z,52.00
2018-02-11T07:45:29.398Z,56.00
2018-02-11T07:46:29.274Z,56.00
2018-02-11T07:47:29.310Z,56.00
2018-02-11T07:48:29.215Z,56.00
2018-02-11T07:49:29.218Z,64.00
2018-02-11T07:50:29.158Z,60.00
2018-02-11T07:51:29.230Z,56.00
2018-02-11T07:52:29.095Z,56.00
2018-02-11T07:53:29.146Z,56.00
2018-02-11T07:54:29.040Z,64.00
2018-02-11T07:55:29.053Z,60.00
2018-02-11T07:56:28.978Z,60.00
2018-02-11T07:57:28.966Z,60.00
2018-02-11T07:58:28.923Z,60.00
2018-02-11T07:59:28.979Z,68.00
2018-02-11T08:00:28.860Z,84.00
2018-02-11T08:01:28.892Z,96.00
2018-02-11T08:02:28.798Z,116.00
2018-02-11T08:03:28.802Z,144.00
2018-02-11T08:04:28.740Z,176.00
2018-02-11T08:05:28.815Z,176.00
2018-02-11T08:06:28.694Z,204.00
2018-02-11T08:07:28.728Z,216.00
2018-02-11T08:08:28.625Z,232.00
2018-02-11T08:09:28.636Z,272.00
2018-02-11T08:10:28.574Z,304.00
2018-02-11T08:11:28.548Z,312.00
2018-02-11T08:12:28.507Z,308.00
2018-02-11T08:13:28.565Z,304.00
2018-02-11T08:14:28.445Z,316.00
2018-02-11T08:15:28.477Z,316.00
2018-02-11T08:16:28.386Z,324.00
2018-02-11T08:17:28.385Z,376.00
2018-02-11T08:18:28.329Z,412.00
2018-02-11T08:19:28.400Z,416.00
2018-02-11T08:20:28.268Z,396.00
2018-02-11T08:21:28.316Z,376.00
2018-02-11T08:22:28.209Z,392.00
2018-02-11T08:23:28.222Z,384.00
2018-02-11T08:24:28.151Z,380.00
2018-02-11T08:25:28.135Z,432.00
2018-02-11T08:26:28.090Z,460.00
2018-02-11T08:27:28.152Z,472.00
2018-02-11T08:28:28.042Z,572.00
2018-02-11T08:29:28.061Z,556.00
2018-02-11T08:30:27.974Z,688.00
2018-02-11T08:31:27.974Z,752.00
2018-02-11T08:32:27.925Z,888.00
2018-02-11T08:33:27.981Z,932.00
2018-02-11T08:34:27.856Z,956.00
2018-02-11T08:35:27.898Z,792.00
2018-02-11T08:36:27.794Z,744.00
2018-02-11T08:37:27.810Z,924.00
2018-02-11T08:38:27.742Z,984.00
2018-02-11T08:39:27.824Z,960.00
2018-02-11T08:40:27.682Z,1096.00
2018-02-11T08:41:27.726Z,1000.00
2018-02-11T08:42:27.624Z,872.00
2018-02-11T08:43:27.646Z,884.00
2018-02-11T08:44:27.569Z,716.00
2018-02-11T08:45:27.557Z,712.00
2018-02-11T08:46:27.507Z,696.00
2018-02-11T08:47:27.571Z,724.00
2018-02-11T08:48:27.448Z,700.00
2018-02-11T08:49:27.481Z,592.00
2018-02-11T08:50:27.384Z,576.00
2018-02-11T08:51:27.392Z,652.00
2018-02-11T08:52:27.399Z,676.00
2018-02-11T08:53:27.304Z,704.00
2018-02-11T08:54:27.420Z,696.00
2018-02-11T08:55:27.247Z,616.00
2018-02-11T08:56:27.320Z,536.00
2018-02-11T08:57:27.188Z,488.00
2018-02-11T08:58:27.163Z,384.00
2018-02-11T08:59:27.250Z,356.00
2018-02-11T09:00:27.110Z,416.00
2018-02-11T09:01:27.156Z,460.00
2018-02-11T09:02:27.040Z,444.00
2018-02-11T09:03:27.168Z,416.00
2018-02-11T09:04:26.986Z,456.00
2018-02-11T09:05:27.084Z,496.00
2018-02-11T09:06:26.929Z,556.00
2018-02-11T09:07:26.989Z,676.00
2018-02-11T09:08:26.872Z,872.00
2018-02-11T09:09:26.906Z,1020.00
2018-02-11T09:10:26.814Z,1192.00
2018-02-11T09:11:26.925Z,992.00
2018-02-11T09:12:26.776Z,1080.00
2018-02-11T09:13:26.877Z,964.00
2018-02-11T09:14:26.700Z,980.00
2018-02-11T09:15:26.741Z,860.00
2018-02-11T09:16:26.637Z,932.00
2018-02-11T09:17:26.758Z,808.00
2018-02-11T09:18:26.588Z,744.00
2018-02-11T09:19:26.671Z,788.00
2018-02-11T09:20:26.536Z,892.00
2018-02-11T09:21:26.580Z,864.00
2018-02-11T09:22:26.469Z,880.00
2018-02-11T09:23:26.594Z,876.00
2018-02-11T09:24:26.412Z,912.00
2018-02-11T09:25:26.505Z,1056.00
2018-02-11T09:26:26.357Z,1116.00
2018-02-11T09:27:26.420Z,1244.00
2018-02-11T09:28:26.296Z,1452.00
2018-02-11T09:29:26.439Z,1460.00
2018-02-11T09:30:26.241Z,1536.00
2018-02-11T09:31:26.238Z,1644.00
2018-02-11T09:32:26.183Z,1780.00
2018-02-11T09:33:26.248Z,1508.00
2018-02-11T09:34:26.127Z,1708.00
2018-02-11T09:35:26.259Z,1720.00
2018-02-11T09:36:26.067Z,1560.00
2018-02-11T09:37:26.178Z,2884.00
2018-02-11T09:38:26.019Z,7336.00
2018-02-11T09:39:26.090Z,7508.00
2018-02-11T09:40:25.957Z,4632.00
2018-02-11T09:41:26.104Z,5620.00
2018-02-11T09:42:25.904Z,4772.00
2018-02-11T09:43:26.020Z,7500.00
2018-02-11T09:44:25.850Z,6080.00
2018-02-11T09:45:25.926Z,2412.00
2018-02-11T09:46:25.799Z,888.00
2018-02-11T09:47:25.946Z,700.00
2018-02-11T09:48:25.745Z,672.00
2018-02-11T09:49:25.854Z,524.00
2018-02-11T09:50:25.700Z,460.00
2018-02-11T09:51:25.764Z,452.00
2018-02-11T09:52:25.640Z,424.00
2018-02-11T09:53:25.779Z,352.00
2018-02-11T09:54:25.594Z,288.00
2018-02-11T09:55:25.692Z,252.00
2018-02-11T09:56:25.537Z,248.00
2018-02-11T09:57:25.702Z,220.00
2018-02-11T09:58:25.474Z,208.00
2018-02-11T09:59:25.613Z,236.00
2018-02-11T10:00:25.434Z,284.00
2018-02-11T10:01:25.526Z,396.00
2018-02-11T10:02:25.376Z,364.00
2018-02-11T10:03:25.540Z,356.00
2018-02-11T10:04:25.322Z,440.00
2018-02-11T10:05:25.451Z,472.00
2018-02-11T10:06:25.271Z,456.00
2018-02-11T10:07:25.355Z,452.00
2018-02-11T10:08:25.233Z,488.00
2018-02-11T10:09:25.192Z,556.00
2018-02-11T10:10:25.193Z,536.00
2018-02-11T10:11:25.136Z,476.00
2018-02-11T10:12:25.206Z,484.00
2018-02-11T10:13:25.083Z,532.00
2018-02-11T10:14:25.055Z,572.00
2018-02-11T10:15:25.029Z,680.00
2018-02-11T10:16:25.024Z,800.00
2018-02-11T10:17:24.970Z,820.00
2018-02-11T10:18:25.038Z,616.00
2018-02-11T10:19:24.915Z,504.00
2018-02-11T10:20:24.947Z,536.00
2018-02-11T10:21:24.873Z,668.00
2018-02-11T10:22:24.862Z,956.00
2018-02-11T10:23:24.809Z,1400.00
2018-02-11T10:24:24.883Z,2044.00
2018-02-11T10:25:24.752Z,3036.00
2018-02-11T10:26:24.772Z,6036.00
2018-02-11T10:27:24.719Z,2888.00
2018-02-11T10:28:24.691Z,1756.00
2018-02-11T10:29:24.647Z,1428.00
2018-02-11T10:30:24.703Z,988.00
2018-02-11T10:31:24.585Z,612.00
2018-02-11T10:32:24.614Z,428.00
2018-02-11T10:33:24.533Z,412.00
2018-02-11T10:34:24.524Z,440.00
2018-02-11T10:35:24.480Z,396.00
2018-02-11T10:36:24.533Z,296.00
2018-02-11T10:37:24.421Z,240.00
2018-02-11T10:38:24.444Z,240.00
2018-02-11T10:39:24.369Z,244.00
2018-02-11T10:40:24.356Z,272.00
2018-02-11T10:41:24.312Z,316.00
2018-02-11T10:42:24.366Z,308.00
2018-02-11T10:43:24.251Z,312.00
2018-02-11T10:44:24.278Z,324.00
2018-02-11T10:45:24.205Z,316.00
2018-02-11T10:46:24.187Z,316.00
2018-02-11T10:47:24.145Z,280.00
2018-02-11T10:48:24.198Z,268.00
2018-02-11T10:49:24.089Z,260.00
2018-02-11T10:50:24.109Z,264.00
2018-02-11T10:51:24.042Z,256.00
2018-02-11T10:52:24.020Z,264.00
2018-02-11T10:53:23.978Z,256.00
2018-02-11T10:54:24.036Z,260.00
2018-02-11T10:55:23.929Z,288.00
2018-02-11T10:56:23.948Z,288.00
2018-02-11T10:57:23.868Z,308.00
2018-02-11T10:58:23.847Z,300.00
2018-02-11T10:59:23.813Z,308.00
2018-02-11T11:00:23.865Z,304.00
2018-02-11T11:01:23.784Z,300.00
2018-02-11T11:02:23.776Z,308.00
2018-02-11T11:03:23.700Z,324.00
2018-02-11T11:04:23.677Z,392.00
2018-02-11T11:05:23.643Z,424.00
2018-02-11T11:06:23.699Z,468.00
2018-02-11T11:07:23.591Z,456.00
2018-02-11T11:08:23.606Z,408.00
2018-02-11T11:09:23.532Z,428.00
2018-02-11T11:10:23.516Z,408.00
2018-02-11T11:11:23.474Z,452.00
2018-02-11T11:12:23.530Z,468.00
2018-02-11T11:13:23.418Z,440.00
2018-02-11T11:14:23.440Z,392.00
2018-02-11T11:15:23.363Z,352.00
2018-02-11T11:16:23.349Z,336.00
2018-02-11T11:17:23.304Z,348.00
2018-02-11T11:18:23.364Z,360.00
2018-02-11T11:19:23.249Z,452.00
2018-02-11T11:20:23.272Z,816.00
2018-02-11T11:21:23.194Z,1104.00
2018-02-11T11:22:23.182Z,1352.00
2018-02-11T11:23:23.135Z,1124.00
2018-02-11T11:24:23.197Z,652.00
2018-02-11T11:25:23.084Z,548.00
2018-02-11T11:26:23.111Z,604.00
2018-02-11T11:27:23.021Z,596.00
2018-02-11T11:28:23.023Z,672.00
2018-02-11T11:29:22.974Z,696.00
2018-02-11T11:30:23.030Z,664.00
2018-02-11T11:31:22.913Z,552.00
2018-02-11T11:32:22.939Z,468.00
2018-02-11T11:33:22.853Z,688.00
2018-02-11T11:34:22.852Z,1064.00
2018-02-11T11:35:22.797Z,1152.00
2018-02-11T11:36:22.861Z,616.00
2018-02-11T11:37:22.793Z,500.00
2018-02-11T11:38:22.772Z,440.00
2018-02-11T11:39:22.685Z,444.00
2018-02-11T11:40:22.684Z,504.00
2018-02-11T11:41:22.632Z,472.00
2018-02-11T11:42:22.697Z,408.00
2018-02-11T11:43:22.571Z,336.00
2018-02-11T11:44:22.629Z,320.00
2018-02-11T11:45:22.517Z,324.00
2018-02-11T11:46:22.510Z,276.00
2018-02-11T11:47:22.459Z,280.00
2018-02-11T11:48:22.526Z,364.00
2018-02-11T11:49:22.403Z,464.00
2018-02-11T11:50:22.435Z,540.00
2018-02-11T11:51:22.347Z,644.00
2018-02-11T11:52:22.345Z,564.00
2018-02-11T11:53:22.290Z,468.00
2018-02-11T11:54:22.361Z,492.00
2018-02-11T11:55:22.236Z,560.00
2018-02-11T11:56:22.296Z,532.00
2018-02-11T11:57:22.177Z,516.00
2018-02-11T11:58:22.180Z,608.00
2018-02-11T11:59:22.122Z,828.00
2018-02-11T12:00:22.192Z,804.00
2018-02-11T12:01:22.074Z,776.00
2018-02-11T12:02:22.060Z,672.00
2018-02-11T12:03:22.108Z,612.00
2018-02-11T12:04:21.984Z,624.00
2018-02-11T12:05:22.020Z,656.00
2018-02-11T12:06:21.936Z,624.00
2018-02-11T12:07:21.930Z,740.00
2018-02-11T12:08:21.870Z,868.00
2018-02-11T12:09:21.941Z,2172.00
2018-02-11T12:10:21.817Z,756.00
2018-02-11T12:11:21.855Z,580.00
2018-02-11T12:12:21.768Z,588.00
2018-02-11T12:13:21.762Z,652.00
2018-02-11T12:14:21.703Z,604.00
2018-02-11T12:15:21.776Z,560.00
2018-02-11T12:16:21.649Z,616.00
2018-02-11T12:17:21.717Z,668.00
2018-02-11T12:18:21.592Z,652.00
2018-02-11T12:19:21.593Z,596.00
2018-02-11T12:20:21.536Z,608.00
2018-02-11T12:21:21.606Z,628.00
2018-02-11T12:22:21.481Z,548.00
2018-02-11T12:23:21.517Z,524.00
2018-02-11T12:24:21.426Z,652.00
2018-02-11T12:25:21.427Z,724.00
2018-02-11T12:26:21.370Z,824.00
2018-02-11T12:27:21.439Z,776.00
2018-02-11T12:28:21.318Z,724.00
2018-02-11T12:29:21.378Z,656.00
2018-02-11T12:30:21.255Z,628.00
2018-02-11T12:31:21.261Z,596.00
2018-02-11T12:32:21.200Z,596.00
2018-02-11T12:33:21.273Z,620.00
2018-02-11T12:34:21.146Z,648.00
2018-02-11T12:35:21.186Z,692.00
2018-02-11T12:36:21.086Z,752.00
2018-02-11T12:37:21.093Z,840.00
2018-02-11T12:38:21.038Z,2480.00
2018-02-11T12:39:21.120Z,3104.00
2018-02-11T12:40:20.979Z,5592.00
2018-02-11T12:41:21.014Z,4176.00
2018-02-11T12:42:20.923Z,4088.00
2018-02-11T12:43:20.925Z,2976.00
2018-02-11T12:44:20.868Z,3772.00
2018-02-11T12:45:20.937Z,3860.00
2018-02-11T12:46:20.816Z,2140.00
2018-02-11T12:47:20.847Z,2696.00
2018-02-11T12:48:20.758Z,3684.00
2018-02-11T12:49:20.759Z,3980.00
2018-02-11T12:50:20.708Z,4572.00
2018-02-11T12:51:20.771Z,5264.00
2018-02-11T12:52:20.657Z,5372.00
2018-02-11T12:53:20.679Z,6084.00
2018-02-11T12:54:20.603Z,7248.00